sensor_id;sensor_type;location;lat;lon;timestamp;P1;durP1;ratioP1;P2;durP2;ratioP2
4166;SDS011;2097;51.104;7.150;2022-09-06T00:00:07;60.97;;;4.30;;
4166;SDS011;2097;51.104;7.150;2022-09-06T00:02:36;61.30;;;4.00;;
4166;SDS011;2097;51.104;7.150;2022-09-06T00:05:03;61.80;;;4.13;;
4166;SDS011;2097;51.104;7.150;2022-09-06T00:07:30;61.50;;;3.77;;
4166;SDS011;2097;51.104;7.150;2022-09-06T00:09:57;61.77;;;3.87;;
4166;SDS011;2097;51.104;7.150;2022-09-06T00:12:24;61.77;;;4.07;;
4166;SDS011;2097;51.104;7.150;2022-09-06T00:14:52;61.67;;;4.30;;
4166;SDS011;2097;51.104;7.150;2022-09-06T00:17:19;61.70;;;4.03;;
4166;SDS011;2097;51.104;7.150;2022-09-06T00:19:46;61.67;;;3.67;;
4166;SDS011;2097;51.104;7.150;2022-09-06T00:22:13;61.50;;;3.87;;
4166;SDS011;2097;51.104;7.150;2022-09-06T00:24:40;61.97;;;3.87;;
4166;SDS011;2097;51.104;7.150;2022-09-06T00:27:07;61.27;;;4.20;;
4166;SDS011;2097;51.104;7.150;2022-09-06T00:29:35;61.67;;;3.80;;
4166;SDS011;2097;51.104;7.150;2022-09-06T00:32:03;61.17;;;3.60;;
4166;SDS011;2097;51.104;7.150;2022-09-06T00:34:30;62.70;;;3.20;;
4166;SDS011;2097;51.104;7.150;2022-09-06T00:36:57;60.93;;;3.70;;
4166;SDS011;2097;51.104;7.150;2022-09-06T00:39:24;61.83;;;3.63;;
4166;SDS011;2097;51.104;7.150;2022-09-06T00:41:51;61.77;;;3.90;;
4166;SDS011;2097;51.104;7.150;2022-09-06T00:44:18;61.43;;;3.97;;
4166;SDS011;2097;51.104;7.150;2022-09-06T00:46:45;62.07;;;3.83;;
4166;SDS011;2097;51.104;7.150;2022-09-06T00:49:17;61.63;;;4.00;;
4166;SDS011;2097;51.104;7.150;2022-09-06T00:51:49;61.57;;;3.60;;
4166;SDS011;2097;51.104;7.150;2022-09-06T00:54:17;61.77;;;3.93;;
4166;SDS011;2097;51.104;7.150;2022-09-06T00:56:44;62.30;;;4.00;;
4166;SDS011;2097;51.104;7.150;2022-09-06T00:59:12;62.80;;;4.90;;
4166;SDS011;2097;51.104;7.150;2022-09-06T01:01:39;62.37;;;4.37;;
4166;SDS011;2097;51.104;7.150;2022-09-06T01:04:05;62.80;;;4.30;;
4166;SDS011;2097;51.104;7.150;2022-09-06T01:06:37;62.30;;;5.30;;
4166;SDS011;2097;51.104;7.150;2022-09-06T01:09:16;62.67;;;4.83;;
4166;SDS011;2097;51.104;7.150;2022-09-06T01:12:01;63.47;;;5.50;;
4166;SDS011;2097;51.104;7.150;2022-09-06T01:14:39;64.97;;;9.47;;
4166;SDS011;2097;51.104;7.150;2022-09-06T01:29:19;62.20;;;3.80;;
4166;SDS011;2097;51.104;7.150;2022-09-06T01:31:53;61.40;;;3.57;;
4166;SDS011;2097;51.104;7.150;2022-09-06T01:34:25;61.87;;;3.90;;
4166;SDS011;2097;51.104;7.150;2022-09-06T01:36:58;62.47;;;4.47;;
4166;SDS011;2097;51.104;7.150;2022-09-06T01:39:28;62.60;;;4.20;;
4166;SDS011;2097;51.104;7.150;2022-09-06T01:41:59;64.00;;;4.50;;
4166;SDS011;2097;51.104;7.150;2022-09-06T01:44:31;63.50;;;6.20;;
4166;SDS011;2097;51.104;7.150;2022-09-06T01:47:02;62.17;;;4.60;;
4166;SDS011;2097;51.104;7.150;2022-09-06T01:49:44;61.70;;;4.40;;
4166;SDS011;2097;51.104;7.150;2022-09-06T01:52:23;62.37;;;4.57;;
4166;SDS011;2097;51.104;7.150;2022-09-06T01:55:03;62.03;;;5.10;;
4166;SDS011;2097;51.104;7.150;2022-09-06T01:57:46;62.37;;;4.57;;
4166;SDS011;2097;51.104;7.150;2022-09-06T02:00:22;61.83;;;4.50;;
4166;SDS011;2097;51.104;7.150;2022-09-06T02:02:56;62.70;;;4.93;;
4166;SDS011;2097;51.104;7.150;2022-09-06T02:05:31;62.37;;;4.47;;
4166;SDS011;2097;51.104;7.150;2022-09-06T02:08:03;61.63;;;4.07;;
4166;SDS011;2097;51.104;7.150;2022-09-06T02:10:36;62.43;;;4.57;;
4166;SDS011;2097;51.104;7.150;2022-09-06T02:13:08;62.17;;;6.60;;
4166;SDS011;2097;51.104;7.150;2022-09-06T02:15:41;62.17;;;4.90;;
4166;SDS011;2097;51.104;7.150;2022-09-06T02:18:13;61.60;;;4.70;;
4166;SDS011;2097;51.104;7.150;2022-09-06T02:20:44;62.30;;;5.03;;
4166;SDS011;2097;51.104;7.150;2022-09-06T02:23:16;61.83;;;4.70;;
4166;SDS011;2097;51.104;7.150;2022-09-06T02:25:46;63.07;;;5.43;;
4166;SDS011;2097;51.104;7.150;2022-09-06T02:28:18;62.33;;;4.97;;
4166;SDS011;2097;51.104;7.150;2022-09-06T02:30:48;61.97;;;4.13;;
4166;SDS011;2097;51.104;7.150;2022-09-06T02:33:18;64.40;;;4.43;;
4166;SDS011;2097;51.104;7.150;2022-09-06T02:35:48;62.03;;;4.27;;
4166;SDS011;2097;51.104;7.150;2022-09-06T02:38:17;61.77;;;4.77;;
4166;SDS011;2097;51.104;7.150;2022-09-06T02:40:47;62.60;;;5.97;;
4166;SDS011;2097;51.104;7.150;2022-09-06T02:43:15;62.37;;;5.57;;
4166;SDS011;2097;51.104;7.150;2022-09-06T02:45:42;61.87;;;4.27;;
4166;SDS011;2097;51.104;7.150;2022-09-06T02:48:10;62.07;;;4.23;;
4166;SDS011;2097;51.104;7.150;2022-09-06T02:50:38;62.47;;;4.50;;
4166;SDS011;2097;51.104;7.150;2022-09-06T02:53:05;62.50;;;4.67;;
4166;SDS011;2097;51.104;7.150;2022-09-06T02:55:34;61.83;;;4.63;;
4166;SDS011;2097;51.104;7.150;2022-09-06T02:58:01;62.13;;;4.20;;
4166;SDS011;2097;51.104;7.150;2022-09-06T03:00:29;62.40;;;4.47;;
4166;SDS011;2097;51.104;7.150;2022-09-06T03:02:56;62.10;;;4.47;;
4166;SDS011;2097;51.104;7.150;2022-09-06T03:05:24;62.90;;;4.70;;
4166;SDS011;2097;51.104;7.150;2022-09-06T03:07:52;61.93;;;4.27;;
4166;SDS011;2097;51.104;7.150;2022-09-06T03:10:19;62.40;;;3.93;;
4166;SDS011;2097;51.104;7.150;2022-09-06T03:12:46;62.17;;;3.90;;
4166;SDS011;2097;51.104;7.150;2022-09-06T03:15:14;61.70;;;4.07;;
4166;SDS011;2097;51.104;7.150;2022-09-06T03:17:41;61.90;;;4.07;;
4166;SDS011;2097;51.104;7.150;2022-09-06T03:20:09;63.17;;;4.90;;
4166;SDS011;2097;51.104;7.150;2022-09-06T03:22:38;61.97;;;4.00;;
4166;SDS011;2097;51.104;7.150;2022-09-06T03:25:06;61.87;;;3.70;;
4166;SDS011;2097;51.104;7.150;2022-09-06T03:27:34;61.27;;;3.80;;
4166;SDS011;2097;51.104;7.150;2022-09-06T03:30:02;61.70;;;3.43;;
4166;SDS011;2097;51.104;7.150;2022-09-06T03:32:29;61.67;;;3.90;;
4166;SDS011;2097;51.104;7.150;2022-09-06T03:34:56;61.90;;;4.50;;
4166;SDS011;2097;51.104;7.150;2022-09-06T03:37:23;62.07;;;4.60;;
4166;SDS011;2097;51.104;7.150;2022-09-06T03:39:51;62.33;;;5.30;;
4166;SDS011;2097;51.104;7.150;2022-09-06T03:42:18;62.67;;;5.30;;
4166;SDS011;2097;51.104;7.150;2022-09-06T03:44:45;62.10;;;4.57;;
4166;SDS011;2097;51.104;7.150;2022-09-06T03:47:12;62.10;;;4.87;;
4166;SDS011;2097;51.104;7.150;2022-09-06T03:49:39;62.60;;;4.90;;
4166;SDS011;2097;51.104;7.150;2022-09-06T03:52:06;62.10;;;4.03;;
4166;SDS011;2097;51.104;7.150;2022-09-06T03:54:33;63.00;;;4.70;;
4166;SDS011;2097;51.104;7.150;2022-09-06T03:57:01;61.70;;;4.10;;
4166;SDS011;2097;51.104;7.150;2022-09-06T03:59:28;62.00;;;4.23;;
4166;SDS011;2097;51.104;7.150;2022-09-06T04:01:55;63.47;;;4.43;;
4166;SDS011;2097;51.104;7.150;2022-09-06T04:04:21;61.70;;;4.20;;
4166;SDS011;2097;51.104;7.150;2022-09-06T04:06:48;62.10;;;4.50;;
4166;SDS011;2097;51.104;7.150;2022-09-06T04:09:15;61.97;;;4.40;;
4166;SDS011;2097;51.104;7.150;2022-09-06T04:11:42;62.07;;;4.27;;
4166;SDS011;2097;51.104;7.150;2022-09-06T04:14:10;61.80;;;3.70;;
4166;SDS011;2097;51.104;7.150;2022-09-06T04:16:37;62.73;;;4.20;;
4166;SDS011;2097;51.104;7.150;2022-09-06T04:19:03;62.00;;;4.47;;
4166;SDS011;2097;51.104;7.150;2022-09-06T04:21:30;62.27;;;4.27;;
4166;SDS011;2097;51.104;7.150;2022-09-06T04:23:57;62.03;;;4.37;;
4166;SDS011;2097;51.104;7.150;2022-09-06T04:26:24;62.33;;;4.80;;
4166;SDS011;2097;51.104;7.150;2022-09-06T04:28:51;62.43;;;4.33;;
4166;SDS011;2097;51.104;7.150;2022-09-06T04:31:19;61.63;;;3.70;;
4166;SDS011;2097;51.104;7.150;2022-09-06T04:33:46;62.07;;;4.30;;
4166;SDS011;2097;51.104;7.150;2022-09-06T04:36:13;61.90;;;4.03;;
4166;SDS011;2097;51.104;7.150;2022-09-06T04:38:40;61.87;;;4.30;;
4166;SDS011;2097;51.104;7.150;2022-09-06T04:41:09;62.07;;;4.17;;
4166;SDS011;2097;51.104;7.150;2022-09-06T04:43:36;61.60;;;3.80;;
4166;SDS011;2097;51.104;7.150;2022-09-06T04:46:04;61.67;;;3.87;;
4166;SDS011;2097;51.104;7.150;2022-09-06T04:48:35;64.90;;;4.47;;
4166;SDS011;2097;51.104;7.150;2022-09-06T04:51:02;61.77;;;4.03;;
4166;SDS011;2097;51.104;7.150;2022-09-06T04:53:29;61.87;;;4.40;;
4166;SDS011;2097;51.104;7.150;2022-09-06T04:55:56;61.87;;;4.10;;
4166;SDS011;2097;51.104;7.150;2022-09-06T04:58:23;61.87;;;4.47;;
4166;SDS011;2097;51.104;7.150;2022-09-06T05:00:50;62.10;;;4.50;;
4166;SDS011;2097;51.104;7.150;2022-09-06T05:03:17;62.00;;;4.40;;
4166;SDS011;2097;51.104;7.150;2022-09-06T05:05:45;62.10;;;4.27;;
4166;SDS011;2097;51.104;7.150;2022-09-06T05:08:12;61.83;;;3.93;;
4166;SDS011;2097;51.104;7.150;2022-09-06T05:10:39;61.80;;;4.00;;
4166;SDS011;2097;51.104;7.150;2022-09-06T05:13:05;61.83;;;3.93;;
4166;SDS011;2097;51.104;7.150;2022-09-06T05:15:32;61.97;;;3.93;;
4166;SDS011;2097;51.104;7.150;2022-09-06T05:18:02;61.87;;;3.90;;
4166;SDS011;2097;51.104;7.150;2022-09-06T05:20:30;61.97;;;4.30;;
4166;SDS011;2097;51.104;7.150;2022-09-06T05:22:58;61.50;;;3.67;;
4166;SDS011;2097;51.104;7.150;2022-09-06T05:25:25;61.50;;;3.50;;
4166;SDS011;2097;51.104;7.150;2022-09-06T05:27:52;61.77;;;3.50;;
4166;SDS011;2097;51.104;7.150;2022-09-06T05:30:19;61.90;;;4.03;;
4166;SDS011;2097;51.104;7.150;2022-09-06T05:32:46;61.90;;;3.80;;
4166;SDS011;2097;51.104;7.150;2022-09-06T05:35:12;61.90;;;4.10;;
4166;SDS011;2097;51.104;7.150;2022-09-06T05:37:39;62.03;;;4.47;;
4166;SDS011;2097;51.104;7.150;2022-09-06T05:40:08;61.47;;;4.13;;
4166;SDS011;2097;51.104;7.150;2022-09-06T05:42:35;62.07;;;4.33;;
4166;SDS011;2097;51.104;7.150;2022-09-06T05:45:02;61.93;;;4.37;;
4166;SDS011;2097;51.104;7.150;2022-09-06T05:47:30;61.90;;;4.47;;
4166;SDS011;2097;51.104;7.150;2022-09-06T05:49:59;61.67;;;3.90;;
4166;SDS011;2097;51.104;7.150;2022-09-06T05:52:26;61.97;;;4.30;;
4166;SDS011;2097;51.104;7.150;2022-09-06T05:54:53;61.97;;;3.97;;
4166;SDS011;2097;51.104;7.150;2022-09-06T05:57:21;61.97;;;4.40;;
4166;SDS011;2097;51.104;7.150;2022-09-06T05:59:48;61.60;;;3.93;;
4166;SDS011;2097;51.104;7.150;2022-09-06T06:02:15;62.23;;;4.23;;
4166;SDS011;2097;51.104;7.150;2022-09-06T06:04:41;61.63;;;3.40;;
4166;SDS011;2097;51.104;7.150;2022-09-06T06:07:08;61.80;;;4.00;;
4166;SDS011;2097;51.104;7.150;2022-09-06T06:09:35;61.37;;;3.80;;
4166;SDS011;2097;51.104;7.150;2022-09-06T06:12:03;61.30;;;3.50;;
4166;SDS011;2097;51.104;7.150;2022-09-06T06:14:32;61.57;;;3.63;;
4166;SDS011;2097;51.104;7.150;2022-09-06T06:16:59;61.37;;;3.63;;
4166;SDS011;2097;51.104;7.150;2022-09-06T06:19:26;61.90;;;4.33;;
4166;SDS011;2097;51.104;7.150;2022-09-06T06:21:53;61.90;;;3.70;;
4166;SDS011;2097;51.104;7.150;2022-09-06T06:24:22;61.97;;;4.10;;
4166;SDS011;2097;51.104;7.150;2022-09-06T06:26:49;61.60;;;3.93;;
4166;SDS011;2097;51.104;7.150;2022-09-06T06:29:16;62.73;;;4.10;;
4166;SDS011;2097;51.104;7.150;2022-09-06T06:31:45;61.80;;;4.03;;
4166;SDS011;2097;51.104;7.150;2022-09-06T06:34:11;61.80;;;3.80;;
4166;SDS011;2097;51.104;7.150;2022-09-06T06:36:38;61.50;;;3.60;;
4166;SDS011;2097;51.104;7.150;2022-09-06T06:39:05;61.83;;;3.60;;
4166;SDS011;2097;51.104;7.150;2022-09-06T06:41:33;61.53;;;3.73;;
4166;SDS011;2097;51.104;7.150;2022-09-06T06:44:00;61.70;;;3.90;;
4166;SDS011;2097;51.104;7.150;2022-09-06T06:46:29;61.70;;;3.90;;
4166;SDS011;2097;51.104;7.150;2022-09-06T06:48:59;61.77;;;3.80;;
4166;SDS011;2097;51.104;7.150;2022-09-06T06:51:26;61.83;;;4.10;;
4166;SDS011;2097;51.104;7.150;2022-09-06T06:53:54;61.10;;;3.90;;
4166;SDS011;2097;51.104;7.150;2022-09-06T06:56:22;61.50;;;3.83;;
4166;SDS011;2097;51.104;7.150;2022-09-06T06:58:51;61.77;;;3.83;;
4166;SDS011;2097;51.104;7.150;2022-09-06T07:01:20;61.40;;;3.67;;
4166;SDS011;2097;51.104;7.150;2022-09-06T07:03:47;61.00;;;3.67;;
4166;SDS011;2097;51.104;7.150;2022-09-06T07:06:16;61.60;;;3.87;;
4166;SDS011;2097;51.104;7.150;2022-09-06T07:08:44;61.00;;;4.37;;
4166;SDS011;2097;51.104;7.150;2022-09-06T07:11:12;61.60;;;3.53;;
4166;SDS011;2097;51.104;7.150;2022-09-06T07:13:41;61.60;;;4.10;;
4166;SDS011;2097;51.104;7.150;2022-09-06T07:16:09;62.03;;;4.00;;
4166;SDS011;2097;51.104;7.150;2022-09-06T07:18:37;61.80;;;4.57;;
4166;SDS011;2097;51.104;7.150;2022-09-06T07:21:07;62.27;;;4.77;;
4166;SDS011;2097;51.104;7.150;2022-09-06T07:23:36;61.87;;;5.50;;
4166;SDS011;2097;51.104;7.150;2022-09-06T07:26:03;62.37;;;5.67;;
4166;SDS011;2097;51.104;7.150;2022-09-06T07:28:30;62.67;;;6.40;;
4166;SDS011;2097;51.104;7.150;2022-09-06T07:30:57;62.57;;;6.10;;
4166;SDS011;2097;51.104;7.150;2022-09-06T07:33:25;62.10;;;5.20;;
4166;SDS011;2097;51.104;7.150;2022-09-06T07:35:55;62.07;;;4.50;;
4166;SDS011;2097;51.104;7.150;2022-09-06T07:38:23;62.10;;;4.50;;
4166;SDS011;2097;51.104;7.150;2022-09-06T07:40:55;61.00;;;3.97;;
4166;SDS011;2097;51.104;7.150;2022-09-06T07:43:23;61.90;;;4.57;;
4166;SDS011;2097;51.104;7.150;2022-09-06T07:45:56;62.23;;;5.03;;
4166;SDS011;2097;51.104;7.150;2022-09-06T07:48:27;62.37;;;5.03;;
4166;SDS011;2097;51.104;7.150;2022-09-06T07:51:01;61.97;;;4.67;;
4166;SDS011;2097;51.104;7.150;2022-09-06T07:53:28;62.57;;;5.33;;
4166;SDS011;2097;51.104;7.150;2022-09-06T07:55:57;63.10;;;5.57;;
4166;SDS011;2097;51.104;7.150;2022-09-06T07:58:24;62.90;;;6.00;;
4166;SDS011;2097;51.104;7.150;2022-09-06T08:00:51;62.63;;;5.60;;
4166;SDS011;2097;51.104;7.150;2022-09-06T08:03:18;63.00;;;5.13;;
4166;SDS011;2097;51.104;7.150;2022-09-06T08:05:47;62.97;;;5.33;;
4166;SDS011;2097;51.104;7.150;2022-09-06T08:08:14;63.43;;;6.20;;
4166;SDS011;2097;51.104;7.150;2022-09-06T08:10:41;62.40;;;5.30;;
4166;SDS011;2097;51.104;7.150;2022-09-06T08:13:09;62.47;;;4.57;;
4166;SDS011;2097;51.104;7.150;2022-09-06T08:15:36;62.53;;;5.03;;
4166;SDS011;2097;51.104;7.150;2022-09-06T08:18:03;62.97;;;5.20;;
4166;SDS011;2097;51.104;7.150;2022-09-06T08:20:29;62.80;;;4.40;;
4166;SDS011;2097;51.104;7.150;2022-09-06T08:22:56;62.43;;;4.10;;
4166;SDS011;2097;51.104;7.150;2022-09-06T08:25:23;62.50;;;4.83;;
4166;SDS011;2097;51.104;7.150;2022-09-06T08:27:49;62.77;;;4.40;;
4166;SDS011;2097;51.104;7.150;2022-09-06T08:30:18;62.97;;;4.40;;
4166;SDS011;2097;51.104;7.150;2022-09-06T08:32:44;62.67;;;4.83;;
4166;SDS011;2097;51.104;7.150;2022-09-06T08:35:12;62.97;;;5.50;;
4166;SDS011;2097;51.104;7.150;2022-09-06T08:37:38;62.63;;;5.23;;
4166;SDS011;2097;51.104;7.150;2022-09-06T08:40:05;62.70;;;5.50;;
4166;SDS011;2097;51.104;7.150;2022-09-06T08:42:35;62.47;;;5.07;;
4166;SDS011;2097;51.104;7.150;2022-09-06T08:45:04;62.33;;;3.90;;
4166;SDS011;2097;51.104;7.150;2022-09-06T08:47:36;62.10;;;4.17;;
4166;SDS011;2097;51.104;7.150;2022-09-06T08:50:03;62.37;;;4.00;;
4166;SDS011;2097;51.104;7.150;2022-09-06T08:52:44;61.90;;;4.33;;
4166;SDS011;2097;51.104;7.150;2022-09-06T08:55:23;62.27;;;4.50;;
4166;SDS011;2097;51.104;7.150;2022-09-06T08:58:22;62.97;;;5.93;;
4166;SDS011;2097;51.104;7.150;2022-09-06T09:00:58;62.50;;;4.27;;
4166;SDS011;2097;51.104;7.150;2022-09-06T09:03:30;62.37;;;4.40;;
4166;SDS011;2097;51.104;7.150;2022-09-06T09:06:00;62.00;;;4.17;;
4166;SDS011;2097;51.104;7.150;2022-09-06T09:08:31;62.07;;;4.20;;
4166;SDS011;2097;51.104;7.150;2022-09-06T09:11:05;62.37;;;4.50;;
4166;SDS011;2097;51.104;7.150;2022-09-06T09:13:37;62.50;;;4.77;;
4166;SDS011;2097;51.104;7.150;2022-09-06T09:16:11;62.70;;;5.13;;
4166;SDS011;2097;51.104;7.150;2022-09-06T09:18:41;62.97;;;5.60;;
4166;SDS011;2097;51.104;7.150;2022-09-06T09:21:11;63.63;;;5.93;;
4166;SDS011;2097;51.104;7.150;2022-09-06T09:23:39;63.57;;;6.70;;
4166;SDS011;2097;51.104;7.150;2022-09-06T09:26:08;63.37;;;6.30;;
4166;SDS011;2097;51.104;7.150;2022-09-06T09:28:40;63.20;;;6.30;;
4166;SDS011;2097;51.104;7.150;2022-09-06T09:31:36;62.67;;;5.43;;
4166;SDS011;2097;51.104;7.150;2022-09-06T09:34:04;62.67;;;4.80;;
4166;SDS011;2097;51.104;7.150;2022-09-06T09:36:35;62.33;;;4.70;;
4166;SDS011;2097;51.104;7.150;2022-09-06T09:39:07;62.67;;;4.63;;
4166;SDS011;2097;51.104;7.150;2022-09-06T09:41:34;62.57;;;5.10;;
4166;SDS011;2097;51.104;7.150;2022-09-06T09:44:04;62.93;;;5.47;;
4166;SDS011;2097;51.104;7.150;2022-09-06T09:46:35;62.77;;;5.57;;
4166;SDS011;2097;51.104;7.150;2022-09-06T09:49:05;62.97;;;6.07;;
4166;SDS011;2097;51.104;7.150;2022-09-06T09:51:34;63.20;;;5.97;;
4166;SDS011;2097;51.104;7.150;2022-09-06T09:54:03;62.57;;;5.07;;
4166;SDS011;2097;51.104;7.150;2022-09-06T09:56:41;62.60;;;4.97;;
4166;SDS011;2097;51.104;7.150;2022-09-06T09:59:18;62.30;;;4.53;;
4166;SDS011;2097;51.104;7.150;2022-09-06T10:01:48;62.70;;;4.87;;
4166;SDS011;2097;51.104;7.150;2022-09-06T10:04:20;62.80;;;5.57;;
4166;SDS011;2097;51.104;7.150;2022-09-06T10:07:05;62.43;;;4.80;;
4166;SDS011;2097;51.104;7.150;2022-09-06T10:09:34;61.87;;;4.33;;
4166;SDS011;2097;51.104;7.150;2022-09-06T10:12:02;62.07;;;4.30;;
4166;SDS011;2097;51.104;7.150;2022-09-06T10:14:32;62.23;;;4.30;;
4166;SDS011;2097;51.104;7.150;2022-09-06T10:17:05;62.37;;;4.30;;
4166;SDS011;2097;51.104;7.150;2022-09-06T10:19:36;62.38;;;4.60;;
4166;SDS011;2097;51.104;7.150;2022-09-06T10:22:11;61.78;;;4.32;;
4166;SDS011;2097;51.104;7.150;2022-09-06T10:24:48;62.08;;;4.35;;
4166;SDS011;2097;51.104;7.150;2022-09-06T10:27:33;62.30;;;4.63;;
4166;SDS011;2097;51.104;7.150;2022-09-06T10:30:02;62.05;;;4.55;;
4166;SDS011;2097;51.104;7.150;2022-09-06T10:32:34;62.22;;;4.20;;
4166;SDS011;2097;51.104;7.150;2022-09-06T10:35:18;62.13;;;4.20;;
4166;SDS011;2097;51.104;7.150;2022-09-06T10:37:48;62.03;;;3.97;;
4166;SDS011;2097;51.104;7.150;2022-09-06T10:40:31;61.95;;;3.85;;
4166;SDS011;2097;51.104;7.150;2022-09-06T10:42:59;61.67;;;4.13;;
4166;SDS011;2097;51.104;7.150;2022-09-06T10:45:34;61.75;;;4.07;;
4166;SDS011;2097;51.104;7.150;2022-09-06T10:48:10;62.05;;;4.70;;
4166;SDS011;2097;51.104;7.150;2022-09-06T10:50:44;62.17;;;4.75;;
4166;SDS011;2097;51.104;7.150;2022-09-06T10:53:21;62.10;;;4.57;;
4166;SDS011;2097;51.104;7.150;2022-09-06T10:56:00;62.17;;;4.45;;
4166;SDS011;2097;51.104;7.150;2022-09-06T10:58:30;62.22;;;4.43;;
4166;SDS011;2097;51.104;7.150;2022-09-06T11:01:03;62.15;;;3.92;;
4166;SDS011;2097;51.104;7.150;2022-09-06T11:03:33;63.38;;;4.07;;
4166;SDS011;2097;51.104;7.150;2022-09-06T11:06:06;61.95;;;3.97;;
4166;SDS011;2097;51.104;7.150;2022-09-06T11:08:36;62.05;;;4.40;;
4166;SDS011;2097;51.104;7.150;2022-09-06T11:11:10;62.30;;;4.07;;
4166;SDS011;2097;51.104;7.150;2022-09-06T11:13:43;61.85;;;4.32;;
4166;SDS011;2097;51.104;7.150;2022-09-06T11:16:14;62.03;;;4.35;;
4166;SDS011;2097;51.104;7.150;2022-09-06T11:18:45;62.05;;;4.15;;
4166;SDS011;2097;51.104;7.150;2022-09-06T11:21:29;62.03;;;3.90;;
4166;SDS011;2097;51.104;7.150;2022-09-06T11:24:15;62.33;;;4.25;;
4166;SDS011;2097;51.104;7.150;2022-09-06T11:26:54;62.50;;;4.20;;
4166;SDS011;2097;51.104;7.150;2022-09-06T11:29:29;62.55;;;5.03;;
4166;SDS011;2097;51.104;7.150;2022-09-06T11:32:00;62.65;;;4.57;;
4166;SDS011;2097;51.104;7.150;2022-09-06T11:34:28;63.15;;;5.90;;
4166;SDS011;2097;51.104;7.150;2022-09-06T11:36:58;63.80;;;7.10;;
4166;SDS011;2097;51.104;7.150;2022-09-06T11:39:27;64.40;;;7.00;;
4166;SDS011;2097;51.104;7.150;2022-09-06T11:41:57;64.15;;;7.40;;
4166;SDS011;2097;51.104;7.150;2022-09-06T11:50:17;63.33;;;6.25;;
4166;SDS011;2097;51.104;7.150;2022-09-06T11:52:49;63.78;;;6.50;;
4166;SDS011;2097;51.104;7.150;2022-09-06T11:55:21;62.42;;;4.75;;
4166;SDS011;2097;51.104;7.150;2022-09-06T11:57:51;62.80;;;4.93;;
4166;SDS011;2097;51.104;7.150;2022-09-06T12:00:21;63.28;;;4.95;;
4166;SDS011;2097;51.104;7.150;2022-09-06T12:02:51;62.58;;;4.55;;
4166;SDS011;2097;51.104;7.150;2022-09-06T12:05:22;62.75;;;4.57;;
4166;SDS011;2097;51.104;7.150;2022-09-06T12:10:56;62.65;;;4.90;;
4166;SDS011;2097;51.104;7.150;2022-09-06T12:13:38;63.10;;;5.43;;
4166;SDS011;2097;51.104;7.150;2022-09-06T12:16:08;63.22;;;5.05;;
4166;SDS011;2097;51.104;7.150;2022-09-06T12:18:56;62.83;;;5.88;;
4166;SDS011;2097;51.104;7.150;2022-09-06T12:21:34;63.05;;;5.55;;
4166;SDS011;2097;51.104;7.150;2022-09-06T12:27:15;62.80;;;5.30;;
4166;SDS011;2097;51.104;7.150;2022-09-06T12:29:50;62.88;;;4.60;;
4166;SDS011;2097;51.104;7.150;2022-09-06T12:32:21;61.83;;;4.50;;
4166;SDS011;2097;51.104;7.150;2022-09-06T12:34:53;62.17;;;4.95;;
4166;SDS011;2097;51.104;7.150;2022-09-06T12:37:31;62.42;;;4.22;;
4166;SDS011;2097;51.104;7.150;2022-09-06T12:40:01;62.05;;;4.07;;
4166;SDS011;2097;51.104;7.150;2022-09-06T12:42:30;62.45;;;4.47;;
4166;SDS011;2097;51.104;7.150;2022-09-06T12:44:59;62.10;;;4.00;;
4166;SDS011;2097;51.104;7.150;2022-09-06T12:47:30;62.15;;;4.05;;
4166;SDS011;2097;51.104;7.150;2022-09-06T12:50:10;62.28;;;4.03;;
4166;SDS011;2097;51.104;7.150;2022-09-06T12:52:45;62.63;;;3.65;;
4166;SDS011;2097;51.104;7.150;2022-09-06T12:55:14;62.63;;;4.18;;
4166;SDS011;2097;51.104;7.150;2022-09-06T12:57:47;62.30;;;4.75;;
4166;SDS011;2097;51.104;7.150;2022-09-06T13:00:15;62.78;;;4.40;;
4166;SDS011;2097;51.104;7.150;2022-09-06T13:02:45;62.85;;;4.28;;
4166;SDS011;2097;51.104;7.150;2022-09-06T13:05:21;62.53;;;4.55;;
4166;SDS011;2097;51.104;7.150;2022-09-06T13:07:50;61.63;;;4.28;;
4166;SDS011;2097;51.104;7.150;2022-09-06T13:10:20;62.47;;;4.38;;
4166;SDS011;2097;51.104;7.150;2022-09-06T13:12:49;62.63;;;4.68;;
4166;SDS011;2097;51.104;7.150;2022-09-06T13:15:18;62.30;;;4.47;;
4166;SDS011;2097;51.104;7.150;2022-09-06T13:17:49;61.78;;;4.43;;
4166;SDS011;2097;51.104;7.150;2022-09-06T13:20:22;62.33;;;4.82;;
4166;SDS011;2097;51.104;7.150;2022-09-06T13:22:52;63.00;;;4.63;;
4166;SDS011;2097;51.104;7.150;2022-09-06T13:25:30;62.55;;;4.78;;
4166;SDS011;2097;51.104;7.150;2022-09-06T13:27:57;62.60;;;5.15;;
4166;SDS011;2097;51.104;7.150;2022-09-06T13:30:32;63.10;;;5.57;;
4166;SDS011;2097;51.104;7.150;2022-09-06T13:33:01;62.53;;;5.55;;
4166;SDS011;2097;51.104;7.150;2022-09-06T13:35:32;62.80;;;6.00;;
4166;SDS011;2097;51.104;7.150;2022-09-06T13:40:48;62.95;;;5.63;;
4166;SDS011;2097;51.104;7.150;2022-09-06T13:43:20;62.70;;;5.47;;
4166;SDS011;2097;51.104;7.150;2022-09-06T13:45:48;62.03;;;5.03;;
4166;SDS011;2097;51.104;7.150;2022-09-06T13:48:15;62.63;;;4.97;;
4166;SDS011;2097;51.104;7.150;2022-09-06T13:50:43;62.97;;;5.57;;
4166;SDS011;2097;51.104;7.150;2022-09-06T13:53:10;63.03;;;5.80;;
4166;SDS011;2097;51.104;7.150;2022-09-06T13:55:37;63.17;;;6.25;;
4166;SDS011;2097;51.104;7.150;2022-09-06T13:58:05;63.25;;;6.05;;
4166;SDS011;2097;51.104;7.150;2022-09-06T14:00:33;63.95;;;6.80;;
4166;SDS011;2097;51.104;7.150;2022-09-06T14:03:00;63.55;;;6.55;;
4166;SDS011;2097;51.104;7.150;2022-09-06T14:05:26;63.72;;;7.32;;
4166;SDS011;2097;51.104;7.150;2022-09-06T14:07:55;62.65;;;6.22;;
4166;SDS011;2097;51.104;7.150;2022-09-06T14:10:21;63.20;;;6.28;;
4166;SDS011;2097;51.104;7.150;2022-09-06T14:12:48;62.53;;;5.07;;
4166;SDS011;2097;51.104;7.150;2022-09-06T14:15:15;62.85;;;5.35;;
4166;SDS011;2097;51.104;7.150;2022-09-06T14:17:42;63.15;;;6.18;;
4166;SDS011;2097;51.104;7.150;2022-09-06T14:20:10;63.00;;;5.95;;
4166;SDS011;2097;51.104;7.150;2022-09-06T14:22:37;63.90;;;7.00;;
4166;SDS011;2097;51.104;7.150;2022-09-06T14:25:06;63.42;;;6.25;;
4166;SDS011;2097;51.104;7.150;2022-09-06T14:27:35;62.63;;;5.18;;
4166;SDS011;2097;51.104;7.150;2022-09-06T14:30:01;62.67;;;5.28;;
4166;SDS011;2097;51.104;7.150;2022-09-06T14:32:29;62.50;;;5.35;;
4166;SDS011;2097;51.104;7.150;2022-09-06T14:34:55;62.25;;;4.75;;
4166;SDS011;2097;51.104;7.150;2022-09-06T14:37:22;63.80;;;5.18;;
4166;SDS011;2097;51.104;7.150;2022-09-06T14:39:49;63.17;;;6.18;;
4166;SDS011;2097;51.104;7.150;2022-09-06T14:42:19;64.00;;;5.80;;
4166;SDS011;2097;51.104;7.150;2022-09-06T14:44:48;62.83;;;5.13;;
4166;SDS011;2097;51.104;7.150;2022-09-06T14:47:15;63.47;;;6.13;;
4166;SDS011;2097;51.104;7.150;2022-09-06T14:49:42;65.03;;;9.80;;
4166;SDS011;2097;51.104;7.150;2022-09-06T14:52:09;65.03;;;9.00;;
4166;SDS011;2097;51.104;7.150;2022-09-06T14:54:36;63.58;;;6.50;;
4166;SDS011;2097;51.104;7.150;2022-09-06T14:57:02;62.42;;;5.28;;
4166;SDS011;2097;51.104;7.150;2022-09-06T14:59:31;63.35;;;5.75;;
4166;SDS011;2097;51.104;7.150;2022-09-06T15:01:57;64.03;;;6.15;;
4166;SDS011;2097;51.104;7.150;2022-09-06T15:04:24;63.50;;;6.20;;
4166;SDS011;2097;51.104;7.150;2022-09-06T15:06:51;63.17;;;5.45;;
4166;SDS011;2097;51.104;7.150;2022-09-06T15:09:18;63.22;;;5.70;;
4166;SDS011;2097;51.104;7.150;2022-09-06T15:11:46;62.92;;;5.30;;
4166;SDS011;2097;51.104;7.150;2022-09-06T15:14:15;62.92;;;5.10;;
4166;SDS011;2097;51.104;7.150;2022-09-06T15:16:45;63.17;;;5.53;;
4166;SDS011;2097;51.104;7.150;2022-09-06T15:19:14;62.55;;;4.65;;
4166;SDS011;2097;51.104;7.150;2022-09-06T15:21:41;62.72;;;5.43;;
4166;SDS011;2097;51.104;7.150;2022-09-06T15:24:08;64.05;;;5.60;;
4166;SDS011;2097;51.104;7.150;2022-09-06T15:26:35;63.50;;;5.32;;
4166;SDS011;2097;51.104;7.150;2022-09-06T15:29:02;62.85;;;5.00;;
4166;SDS011;2097;51.104;7.150;2022-09-06T15:31:29;63.42;;;5.82;;
4166;SDS011;2097;51.104;7.150;2022-09-06T15:34:00;63.65;;;6.80;;
4166;SDS011;2097;51.104;7.150;2022-09-06T15:36:27;63.53;;;7.03;;
4166;SDS011;2097;51.104;7.150;2022-09-06T15:38:57;63.42;;;6.28;;
4166;SDS011;2097;51.104;7.150;2022-09-06T15:41:25;63.42;;;6.43;;